Time;durP1;ratioP1;P1;durP2;ratioP2;P2;SDS_P1;SDS_P2;PMS_P1;PMS_P2;Temp;Humidity;BMP_temperature;BMP_pressure;BME280_temperature;BME280_humidity;BME280_pressure;Samples;Min_cycle;Max_cycle;Signal;HPM_P1;HPM_P2
2023/05/19 00:02:20;;;;;;;;;;;;;;;6.34;68.01;102742.96;107714;1256;59275;-83
2023/05/19 00:04:48;;;;;;;;;;;;;;;6.30;68.10;102742.67;107509;1255;122742;-83
2023/05/19 00:07:21;;;;;;;;;;;;;;;6.26;68.10;102741.17;107440;1254;74369;-83
2023/05/19 00:09:48;;;;;;;;;;;;;;;6.21;68.16;102738.91;107491;1256;124348;-83
2023/05/19 00:12:16;;;;;;;;;;;;;;;6.18;68.32;102740.90;107558;1257;73257;-83
2023/05/19 00:14:43;;;;;;;;;;;;;;;6.13;68.30;102741.09;107595;1255;60086;-83
2023/05/19 00:17:10;;;;;;;;;;;;;;;6.09;68.39;102737.48;107413;1257;288533;-83
2023/05/19 00:19:38;;;;;;;;;;;;;;;6.05;68.42;102738.55;107919;1254;74288;-83
2023/05/19 00:22:06;;;;;;;;;;;;;;;6.00;68.50;102736.48;107688;1255;124442;-83
2023/05/19 00:24:35;;;;;;;;;;;;;;;5.95;68.64;102736.20;107799;1256;72749;-83
2023/05/19 00:27:02;;;;;;;;;;;;;;;5.89;68.84;102736.64;107609;1256;59585;-83
2023/05/19 00:29:29;;;;;;;;;;;;;;;5.84;69.00;102737.70;107704;1254;124550;-83
2023/05/19 00:31:57;;;;;;;;;;;;;;;5.81;69.18;102737.77;107935;1255;74050;-83
2023/05/19 00:34:24;;;;;;;;;;;;;;;5.79;69.31;102743.67;107365;1254;123739;-83
2023/05/19 00:36:51;;;;;;;;;;;;;;;5.76;69.53;102743.68;107542;1257;73109;-83
2023/05/19 00:39:18;;;;;;;;;;;;;;;5.75;69.50;102743.58;107672;1254;59817;-82
2023/05/19 00:41:45;;;;;;;;;;;;;;;5.73;69.69;102742.03;107561;1256;124182;-83
2023/05/19 00:44:12;;;;;;;;;;;;;;;5.71;69.77;102741.56;107671;1255;74198;-83
2023/05/19 00:46:40;;;;;;;;;;;;;;;5.70;69.72;102742.14;107636;1256;123878;-83
2023/05/19 00:49:07;;;;;;;;;;;;;;;5.68;70.05;102741.51;107864;1254;73428;-83
2023/05/19 00:51:34;;;;;;;;;;;;;;;5.67;70.02;102737.73;107906;1254;59892;-83
2023/05/19 00:54:02;;;;;;;;;;;;;;;5.66;70.11;102736.61;107488;1254;123923;-83
2023/05/19 00:56:29;;;;;;;;;;;;;;;5.63;70.19;102738.36;107567;1254;75649;-84
2023/05/19 00:58:56;;;;;;;;;;;;;;;5.60;70.14;102739.85;107330;1257;123993;-83
2023/05/19 01:01:25;;;;;;;;;;;;;;;5.57;70.23;102740.33;107592;1254;71461;-83
2023/05/19 01:03:52;;;;;;;;;;;;;;;5.55;70.26;102741.02;107315;1254;123153;-83
2023/05/19 01:06:19;;;;;;;;;;;;;;;5.53;70.34;102740.37;107516;1257;61263;-84
2023/05/19 01:08:46;;;;;;;;;;;;;;;5.52;70.25;102742.14;107702;1255;74665;-84
2023/05/19 01:11:13;;;;;;;;;;;;;;;5.51;70.41;102740.34;107463;1254;125230;-84
2023/05/19 01:13:42;;;;;;;;;;;;;;;5.51;70.40;102744.67;107628;1254;71308;-84
2023/05/19 01:19:09;;;;;;;;;;;;;;;5.49;70.41;102742.95;107620;1257;60461;-84
2023/05/19 01:21:43;;;;;;;;;;;;;;;5.50;70.62;102743.52;107606;1256;74766;-84
2023/05/19 01:24:13;;;;;;;;;;;;;;;5.51;70.65;102742.97;107665;1254;67636;-84
2023/05/19 01:26:58;;;;;;;;;;;;;;;5.53;70.62;102741.17;107959;1254;71327;-84
2023/05/19 01:29:29;;;;;;;;;;;;;;;5.55;70.82;102740.83;107497;1253;124656;-84
2023/05/19 01:31:57;;;;;;;;;;;;;;;5.57;70.83;102741.17;107530;1256;61327;-83
2023/05/19 01:34:24;;;;;;;;;;;;;;;5.61;70.97;102741.65;107507;1257;125447;-83
2023/05/19 01:36:53;;;;;;;;;;;;;;;5.63;70.92;102739.24;107769;1254;65925;-84
2023/05/19 01:39:20;;;;;;;;;;;;;;;5.67;70.99;102738.77;107962;1254;72718;-83
2023/05/19 01:41:47;;;;;;;;;;;;;;;5.71;70.94;102739.57;107899;1256;125345;-83
2023/05/19 01:44:15;;;;;;;;;;;;;;;5.72;71.04;102737.09;108008;1257;59806;-83
2023/05/19 01:46:42;;;;;;;;;;;;;;;5.75;70.99;102734.49;108030;1254;125391;-83
2023/05/19 01:49:09;;;;;;;;;;;;;;;5.77;71.02;102733.30;107834;1254;67986;-83
2023/05/19 01:51:37;;;;;;;;;;;;;;;5.79;70.91;102731.92;107381;1254;72673;-83
2023/05/19 01:54:03;;;;;;;;;;;;;;;5.81;70.95;102731.54;107504;1254;125180;-83
2023/05/19 01:56:57;;;;;;;;;;;;;;;5.84;71.12;102733.15;107797;1254;59310;-83
2023/05/19 01:59:36;;;;;;;;;;;;;;;5.87;71.04;102733.50;107158;1262;125204;-83
2023/05/19 02:02:06;;;;;;;;;;;;;;;5.89;71.04;102727.91;107426;1263;64645;-84
2023/05/19 02:04:42;;;;;;;;;;;;;;;5.91;71.11;102721.84;108194;1263;124562;-84
2023/05/19 02:07:09;;;;;;;;;;;;;;;5.94;71.16;102726.54;108410;1264;59527;-84
2023/05/19 02:09:50;;;;;;;;;;;;;;;5.96;71.09;102726.17;108470;1263;59320;-84
2023/05/19 02:12:33;;;;;;;;;;;;;;;5.97;71.13;102721.73;108374;1264;74461;-83
2023/05/19 02:15:04;;;;;;;;;;;;;;;5.96;71.12;102720.98;108412;1264;66098;-84
2023/05/19 02:17:32;;;;;;;;;;;;;;;5.96;71.07;102721.34;107279;1264;124062;-84
2023/05/19 02:19:59;;;;;;;;;;;;;;;5.97;70.97;102719.82;106966;1265;61388;-84
2023/05/19 02:22:26;;;;;;;;;;;;;;;5.98;71.04;102719.05;107073;1264;124156;-84
2023/05/19 02:24:55;;;;;;;;;;;;;;;5.98;71.06;102719.77;107009;1264;73114;-84
2023/05/19 02:27:22;;;;;;;;;;;;;;;6.01;71.02;102718.02;107076;1262;65808;-84
2023/05/19 02:29:49;;;;;;;;;;;;;;;6.03;71.09;102721.33;106863;1262;124240;-84
2023/05/19 02:32:16;;;;;;;;;;;;;;;6.04;71.02;102720.34;106854;1264;61055;-84
2023/05/19 02:34:44;;;;;;;;;;;;;;;6.06;71.06;102718.39;106694;1262;124561;-84
2023/05/19 02:37:14;;;;;;;;;;;;;;;6.08;71.07;102715.58;107534;1257;73035;-83
2023/05/19 02:39:41;;;;;;;;;;;;;;;6.08;71.08;102711.79;107521;1259;65523;-83
2023/05/19 02:42:09;;;;;;;;;;;;;;;6.09;71.09;102711.16;107699;1254;123884;-83
2023/05/19 02:44:37;;;;;;;;;;;;;;;6.11;71.01;102711.77;107535;1254;60973;-84
2023/05/19 02:47:04;;;;;;;;;;;;;;;6.12;71.00;102713.83;107406;1257;124080;-84
2023/05/19 02:49:34;;;;;;;;;;;;;;;6.15;71.01;102715.79;107368;1256;73402;-84
2023/05/19 02:52:03;;;;;;;;;;;;;;;6.18;70.98;102713.42;107385;1260;124021;-84
2023/05/19 02:54:31;;;;;;;;;;;;;;;6.24;71.03;102712.95;107357;1254;71805;-84
2023/05/19 02:56:59;;;;;;;;;;;;;;;6.29;71.10;102711.63;107657;1257;59957;-84
2023/05/19 02:59:26;;;;;;;;;;;;;;;6.34;71.05;102707.45;107456;1254;124755;-84
2023/05/19 03:02:00;;;;;;;;;;;;;;;6.41;70.94;102710.57;107817;1254;74679;-84
2023/05/19 03:04:28;;;;;;;;;;;;;;;6.49;70.95;102711.42;107588;1257;124759;-84
2023/05/19 03:06:56;;;;;;;;;;;;;;;6.55;70.93;102709.45;107868;1253;72973;-84
2023/05/19 03:09:24;;;;;;;;;;;;;;;6.62;70.96;102713.83;108037;1257;60983;-84
2023/05/19 03:11:52;;;;;;;;;;;;;;;6.72;70.86;102720.08;107741;1257;123736;-84
2023/05/19 03:14:22;;;;;;;;;;;;;;;6.81;70.97;102719.04;107908;1254;74968;-84
2023/05/19 03:16:49;;;;;;;;;;;;;;;6.92;70.88;102715.95;107437;1254;123760;-84
2023/05/19 03:19:16;;;;;;;;;;;;;;;7.02;70.80;102717.70;107497;1254;72934;-84
2023/05/19 03:21:46;;;;;;;;;;;;;;;7.13;70.78;102715.15;107608;1254;61005;-84
2023/05/19 03:24:13;;;;;;;;;;;;;;;7.25;70.75;102713.02;107746;1258;61112;-84
2023/05/19 03:26:40;;;;;;;;;;;;;;;7.37;70.61;102711.97;107610;1256;74502;-84
2023/05/19 03:29:10;;;;;;;;;;;;;;;7.47;70.55;102710.17;107344;1257;124563;-85
2023/05/19 03:31:40;;;;;;;;;;;;;;;7.62;70.48;102709.62;107434;1256;71444;-86
2023/05/19 03:34:07;;;;;;;;;;;;;;;7.75;70.27;102710.21;107484;1254;124923;-86
2023/05/19 03:36:40;;;;;;;;;;;;;;;7.88;70.12;102712.96;107520;1255;61241;-87
2023/05/19 03:39:08;;;;;;;;;;;;;;;8.04;70.23;102713.70;107631;1254;73115;-85
2023/05/19 03:41:36;;;;;;;;;;;;;;;8.17;70.06;102716.13;107298;1257;124772;-85
2023/05/19 03:44:03;;;;;;;;;;;;;;;8.29;69.94;102715.17;107415;1256;71941;-85
2023/05/19 03:46:30;;;;;;;;;;;;;;;8.45;69.92;102718.68;107428;1258;124051;-84
2023/05/19 03:48:57;;;;;;;;;;;;;;;8.61;69.76;102722.20;107518;1254;61081;-85
2023/05/19 03:51:27;;;;;;;;;;;;;;;8.71;69.60;102722.45;107599;1257;74603;-86
2023/05/19 03:53:55;;;;;;;;;;;;;;;8.84;69.53;102721.95;107654;1255;124341;-85
2023/05/19 03:56:25;;;;;;;;;;;;;;;9.02;69.43;102724.24;107510;1254;73243;-85
2023/05/19 03:58:53;;;;;;;;;;;;;;;9.13;69.25;102725.50;107538;1260;124500;-83
2023/05/19 04:01:20;;;;;;;;;;;;;;;9.21;69.12;102723.16;107468;1254;59769;-84
2023/05/19 04:03:47;;;;;;;;;;;;;;;9.31;68.99;102723.77;107272;1256;124647;-83
2023/05/19 04:06:14;;;;;;;;;;;;;;;9.38;68.86;102726.46;107687;1254;65084;-84
2023/05/19 04:08:43;;;;;;;;;;;;;;;9.46;68.71;102731.88;107973;1258;71351;-83
2023/05/19 04:11:10;;;;;;;;;;;;;;;9.51;68.62;102724.70;107703;1254;124863;-82
2023/05/19 04:13:38;;;;;;;;;;;;;;;9.55;68.52;102727.03;107838;1257;59358;-85
2023/05/19 04:16:06;;;;;;;;;;;;;;;9.61;68.62;102723.85;107640;1257;126766;-83
2023/05/19 04:18:33;;;;;;;;;;;;;;;9.67;68.47;102718.97;108031;1256;65627;-85
2023/05/19 04:21:02;;;;;;;;;;;;;;;9.73;68.48;102720.72;107533;1254;72762;-85
2023/05/19 04:23:41;;;;;;;;;;;;;;;9.78;68.42;102716.11;107366;1259;124393;-86
2023/05/19 04:26:16;;;;;;;;;;;;;;;9.87;68.45;102712.44;107270;1254;61666;-86
2023/05/19 04:28:43;;;;;;;;;;;;;;;9.99;68.38;102714.71;107435;1255;125187;-83
2023/05/19 04:31:11;;;;;;;;;;;;;;;10.06;68.20;102712.17;107902;1254;65846;-83
2023/05/19 04:33:38;;;;;;;;;;;;;;;10.17;68.23;102713.82;107597;1257;71284;-86
2023/05/19 04:36:19;;;;;;;;;;;;;;;10.34;68.08;102712.03;107264;1256;124890;-87
2023/05/19 04:38:47;;;;;;;;;;;;;;;10.48;67.87;102713.39;107454;1258;60981;-87
2023/05/19 04:41:15;;;;;;;;;;;;;;;10.60;67.71;102709.50;107707;1254;124931;-84
2023/05/19 04:43:43;;;;;;;;;;;;;;;10.77;67.54;102709.88;108029;1254;67641;-83
2023/05/19 04:46:23;;;;;;;;;;;;;;;10.89;67.33;102708.64;107541;1257;125099;-85
2023/05/19 04:49:03;;;;;;;;;;;;;;;11.05;67.11;102710.58;107801;1256;60087;-91
2023/05/19 04:51:40;;;;;;;;;;;;;;;11.21;66.90;102716.17;107774;1256;59611;-85
2023/05/19 04:54:07;;;;;;;;;;;;;;;11.34;66.52;102715.99;108099;1255;124594;-85
2023/05/19 04:56:35;;;;;;;;;;;;;;;11.45;66.26;102713.06;107585;1259;66615;-86
2023/05/19 04:59:08;;;;;;;;;;;;;;;11.61;66.23;102715.66;107522;1257;124129;-85
2023/05/19 05:01:39;;;;;;;;;;;;;;;11.84;66.15;102713.48;107295;1257;61422;-85
2023/05/19 05:04:08;;;;;;;;;;;;;;;12.11;65.84;102713.67;107468;1259;124401;-84
2023/05/19 05:06:37;;;;;;;;;;;;;;;12.31;65.33;102716.24;107653;1255;73832;-83
2023/05/19 05:09:04;;;;;;;;;;;;;;;12.49;65.12;102720.11;107715;1258;64855;-87
2023/05/19 05:11:31;;;;;;;;;;;;;;;12.65;64.62;102721.75;107574;1254;124639;-84
2023/05/19 05:13:59;;;;;;;;;;;;;;;12.80;64.51;102724.23;108916;1256;59052;-84
2023/05/19 05:16:27;;;;;;;;;;;;;;;13.02;63.99;102724.73;109060;1254;124344;-83
2023/05/19 05:18:54;;;;;;;;;;;;;;;13.12;63.59;102725.54;108947;1254;74521;-82
2023/05/19 05:21:22;;;;;;;;;;;;;;;13.26;63.50;102719.66;109123;1254;65554;-82
2023/05/19 05:23:50;;;;;;;;;;;;;;;13.47;63.19;102718.00;108708;1254;125348;-84
2023/05/19 05:26:23;;;;;;;;;;;;;;;13.69;63.08;102715.93;107654;1257;60980;-83
2023/05/19 05:28:51;;;;;;;;;;;;;;;13.94;62.46;102713.88;107569;1256;124358;-88
2023/05/19 05:31:18;;;;;;;;;;;;;;;14.08;61.93;102710.56;107843;1253;72692;-83
2023/05/19 05:33:45;;;;;;;;;;;;;;;14.13;61.60;102713.60;107489;1257;67608;-84
2023/05/19 05:36:13;;;;;;;;;;;;;;;14.06;61.06;102707.82;107498;1254;72245;-87
2023/05/19 05:38:46;;;;;;;;;;;;;;;13.84;60.82;102711.64;107618;1254;59689;-84
2023/05/19 05:41:14;;;;;;;;;;;;;;;13.60;60.88;102716.27;107431;1254;124086;-81
2023/05/19 05:43:41;;;;;;;;;;;;;;;13.49;61.01;102716.48;107443;1257;74490;-82
2023/05/19 05:46:08;;;;;;;;;;;;;;;13.41;61.16;102720.19;107499;1260;124606;-82
2023/05/19 05:48:35;;;;;;;;;;;;;;;13.49;61.44;102717.52;107632;1257;71438;-82
2023/05/19 05:51:04;;;;;;;;;;;;;;;13.55;61.47;102717.98;107576;1254;59737;-84
2023/05/19 05:53:33;;;;;;;;;;;;;;;13.64;61.28;102718.21;107300;1257;124917;-83
2023/05/19 05:56:00;;;;;;;;;;;;;;;13.63;61.03;102716.92;107510;1254;73375;-84
2023/05/19 05:58:27;;;;;;;;;;;;;;;13.59;60.87;102721.89;107276;1261;124454;-83
2023/05/19 06:00:56;;;;;;;;;;;;;;;13.50;60.61;102724.65;107517;1254;71405;-83
2023/05/19 06:03:24;;;;;;;;;;;;;;;13.45;60.75;102727.06;107690;1254;60859;-83
2023/05/19 06:05:51;;;;;;;;;;;;;;;13.44;60.77;102726.84;107462;1254;124226;-82
2023/05/19 06:08:18;;;;;;;;;;;;;;;13.50;60.86;102730.84;107540;1254;73874;-83
2023/05/19 06:10:47;;;;;;;;;;;;;;;13.60;60.92;102738.14;107427;1257;125023;-85
2023/05/19 06:13:17;;;;;;;;;;;;;;;13.75;61.10;102736.16;108072;1254;73049;-84
2023/05/19 06:15:47;;;;;;;;;;;;;;;13.83;60.73;102736.30;107636;1257;59967;-83
2023/05/19 06:18:16;;;;;;;;;;;;;;;13.71;60.18;102739.16;107907;1259;61142;-83
2023/05/19 06:20:49;;;;;;;;;;;;;;;13.52;60.42;102740.08;107678;1257;73841;-85
2023/05/19 06:23:16;;;;;;;;;;;;;;;13.55;60.73;102742.18;107481;1256;124428;-86
2023/05/19 06:25:43;;;;;;;;;;;;;;;13.58;60.68;102745.48;107729;1257;71347;-84
2023/05/19 06:28:10;;;;;;;;;;;;;;;13.59;60.70;102740.91;107755;1254;124833;-87
2023/05/19 06:30:37;;;;;;;;;;;;;;;13.64;60.77;102741.83;107890;1259;60779;-84
2023/05/19 06:33:06;;;;;;;;;;;;;;;13.64;60.67;102739.55;107688;1254;74341;-85
2023/05/19 06:35:33;;;;;;;;;;;;;;;13.63;60.71;102738.98;107695;1254;124219;-83
2023/05/19 06:38:00;;;;;;;;;;;;;;;13.63;60.70;102738.30;107869;1259;71436;-84
2023/05/19 06:40:28;;;;;;;;;;;;;;;13.60;60.73;102738.30;107708;1254;124476;-88
2023/05/19 06:42:56;;;;;;;;;;;;;;;13.56;60.81;102737.41;107766;1254;61215;-84
2023/05/19 06:45:25;;;;;;;;;;;;;;;13.52;60.75;102737.43;107410;1254;74143;-87
2023/05/19 06:47:53;;;;;;;;;;;;;;;13.54;60.89;102736.27;107457;1254;124171;-85
2023/05/19 06:50:23;;;;;;;;;;;;;;;13.60;60.77;102734.98;107331;1259;72713;-84
2023/05/19 06:52:50;;;;;;;;;;;;;;;13.61;60.60;102738.36;107208;1255;124135;-86
2023/05/19 06:55:17;;;;;;;;;;;;;;;13.62;60.58;102735.40;107355;1259;60334;-86
2023/05/19 06:57:45;;;;;;;;;;;;;;;13.64;60.66;102732.48;107553;1254;74669;-87
2023/05/19 07:00:40;;;;;;;;;;;;;;;13.69;60.52;102733.42;107375;1256;189016;-84
2023/05/19 07:03:07;;;;;;;;;;;;;;;13.73;60.51;102726.52;107923;1254;70748;-84
2023/05/19 07:05:35;;;;;;;;;;;;;;;13.78;60.57;102728.54;107544;1257;124145;-84
2023/05/19 07:08:02;;;;;;;;;;;;;;;13.92;60.57;102722.42;107699;1254;60917;-84
2023/05/19 07:10:30;;;;;;;;;;;;;;;14.06;60.41;102723.19;107636;1255;124656;-85
2023/05/19 07:12:58;;;;;;;;;;;;;;;14.09;60.03;102724.71;107634;1257;67067;-82
2023/05/19 07:15:25;;;;;;;;;;;;;;;14.15;60.04;102729.74;108463;1254;71482;-83
2023/05/19 07:17:54;;;;;;;;;;;;;;;14.25;59.77;102731.02;107358;1254;124269;-85
2023/05/19 07:20:21;;;;;;;;;;;;;;;14.32;59.72;102734.69;107728;1254;59882;-82
2023/05/19 07:22:50;;;;;;;;;;;;;;;14.44;59.51;102734.14;107601;1254;124292;-85
2023/05/19 07:25:17;;;;;;;;;;;;;;;14.38;59.18;102731.92;107592;1254;66011;-82
2023/05/19 07:27:53;;;;;;;;;;;;;;;14.36;59.23;102733.45;107579;1255;73211;-86
2023/05/19 07:30:20;;;;;;;;;;;;;;;14.46;59.07;102736.48;107395;1257;61182;-83
2023/05/19 07:32:49;;;;;;;;;;;;;;;14.56;59.17;102731.45;107375;1254;61266;-84
2023/05/19 07:35:16;;;;;;;;;;;;;;;14.73;58.80;102733.02;107301;1254;124059;-86
2023/05/19 07:37:47;;;;;;;;;;;;;;;14.79;58.72;102732.02;107286;1254;65790;-86
2023/05/19 07:40:14;;;;;;;;;;;;;;;14.97;58.53;102732.54;107487;1257;124806;-82
2023/05/19 07:42:43;;;;;;;;;;;;;;;15.12;58.37;102731.35;107679;1254;60051;-83
2023/05/19 07:45:17;;;;;;;;;;;;;;;15.14;57.95;102733.89;107586;1254;60553;-85
2023/05/19 07:47:44;;;;;;;;;;;;;;;15.15;57.71;102733.75;107462;1257;124147;-83
2023/05/19 07:50:11;;;;;;;;;;;;;;;15.13;57.47;102732.27;107682;1258;65816;-82
2023/05/19 07:52:38;;;;;;;;;;;;;;;15.25;57.66;102731.48;107520;1260;124231;-83
2023/05/19 07:55:05;;;;;;;;;;;;;;;15.42;57.39;102730.85;107935;1256;61244;-83
2023/05/19 07:57:32;;;;;;;;;;;;;;;15.53;57.20;102730.02;108035;1259;61031;-83
2023/05/19 07:59:59;;;;;;;;;;;;;;;15.70;56.92;102727.11;107835;1256;124418;-82
2023/05/19 08:02:26;;;;;;;;;;;;;;;15.80;56.59;102728.02;107770;1260;65659;-83
2023/05/19 08:04:55;;;;;;;;;;;;;;;15.88;56.39;102730.41;107705;1259;124703;-82
2023/05/19 08:07:24;;;;;;;;;;;;;;;15.84;56.12;102729.91;107400;1257;61427;-83
2023/05/19 08:09:51;;;;;;;;;;;;;;;15.81;56.09;102725.59;108250;1259;61190;-81
2023/05/19 08:12:18;;;;;;;;;;;;;;;15.92;56.08;102722.97;108030;1256;73419;-82
2023/05/19 08:14:45;;;;;;;;;;;;;;;15.99;55.94;102717.14;107891;1257;64745;-83
2023/05/19 08:17:12;;;;;;;;;;;;;;;16.11;55.69;102720.05;107639;1260;124161;-82
2023/05/19 08:19:39;;;;;;;;;;;;;;;16.22;55.79;102717.38;107837;1256;59656;-82
2023/05/19 08:22:05;;;;;;;;;;;;;;;16.26;55.14;102722.51;107475;1260;124238;-81
2023/05/19 08:24:33;;;;;;;;;;;;;;;16.21;54.77;102721.79;107592;1256;73338;-82
2023/05/19 08:27:00;;;;;;;;;;;;;;;16.18;54.41;102722.39;107393;1257;67696;-83
2023/05/19 08:29:27;;;;;;;;;;;;;;;16.03;53.95;102720.66;107169;1257;124071;-84
2023/05/19 08:31:54;;;;;;;;;;;;;;;16.00;54.23;102717.52;107317;1260;62143;-82
2023/05/19 08:34:21;;;;;;;;;;;;;;;16.03;54.18;102720.30;107510;1257;124975;-82
2023/05/19 08:36:48;;;;;;;;;;;;;;;16.00;54.07;102723.91;108081;1258;74272;-83
2023/05/19 08:39:17;;;;;;;;;;;;;;;15.90;53.78;102726.60;107658;1257;67177;-83
2023/05/19 08:41:44;;;;;;;;;;;;;;;15.73;53.51;102725.80;107586;1262;124678;-83
2023/05/19 08:44:16;;;;;;;;;;;;;;;15.75;53.92;102722.50;107472;1257;60965;-85
2023/05/19 08:46:44;;;;;;;;;;;;;;;15.92;54.09;102720.64;107563;1257;124195;-84
2023/05/19 08:49:12;;;;;;;;;;;;;;;16.06;53.81;102720.04;107379;1262;74719;-84
2023/05/19 08:51:45;;;;;;;;;;;;;;;16.10;53.62;102723.55;107517;1260;65743;-83
2023/05/19 08:54:17;;;;;;;;;;;;;;;16.07;52.97;102726.64;107644;1257;124585;-82
2023/05/19 08:56:46;;;;;;;;;;;;;;;15.93;53.15;102724.37;107494;1255;61310;-84
2023/05/19 08:59:15;;;;;;;;;;;;;;;15.94;53.25;102722.30;107430;1257;124405;-84
2023/05/19 09:01:43;;;;;;;;;;;;;;;15.95;53.18;102718.98;107409;1257;74460;-84
2023/05/19 09:04:11;;;;;;;;;;;;;;;15.99;53.31;102720.89;107617;1258;125435;-84
2023/05/19 09:06:43;;;;;;;;;;;;;;;16.05;53.07;102723.55;107603;1258;72474;-82
2023/05/19 09:09:10;;;;;;;;;;;;;;;16.09;52.97;102721.23;108011;1257;59350;-82
2023/05/19 09:11:37;;;;;;;;;;;;;;;16.09;53.04;102723.17;107723;1261;125256;-82
2023/05/19 09:14:04;;;;;;;;;;;;;;;16.21;52.79;102724.27;107652;1255;73190;-81
2023/05/19 09:16:32;;;;;;;;;;;;;;;16.36;52.84;102723.15;107687;1258;124693;-81
2023/05/19 09:18:59;;;;;;;;;;;;;;;16.37;52.68;102719.80;107693;1257;72244;-82
2023/05/19 09:21:29;;;;;;;;;;;;;;;16.28;52.45;102715.29;108356;1260;59589;-82
2023/05/19 09:24:02;;;;;;;;;;;;;;;16.20;52.52;102717.86;108117;1255;124097;-83
2023/05/19 09:26:39;;;;;;;;;;;;;;;16.15;52.37;102716.63;107589;1260;72370;-82
2023/05/19 09:29:13;;;;;;;;;;;;;;;16.22;52.38;102712.42;108819;1261;124469;-82
2023/05/19 09:31:46;;;;;;;;;;;;;;;16.35;52.22;102717.45;108946;1254;72440;-82
2023/05/19 09:34:13;;;;;;;;;;;;;;;16.31;51.73;102715.56;108265;1260;124204;-82
2023/05/19 09:36:41;;;;;;;;;;;;;;;16.32;51.59;102717.18;107775;1256;60137;-82
2023/05/19 09:39:18;;;;;;;;;;;;;;;16.23;51.08;102716.37;107869;1257;74673;-82
2023/05/19 09:41:45;;;;;;;;;;;;;;;16.04;50.84;102712.02;107201;1257;124578;-82
2023/05/19 09:44:28;;;;;;;;;;;;;;;15.91;51.09;102707.13;107479;1257;72507;-82
2023/05/19 09:46:55;;;;;;;;;;;;;;;15.81;51.38;102702.03;107742;1258;124689;-80
2023/05/19 09:49:23;;;;;;;;;;;;;;;15.85;51.39;102702.70;107736;1254;59734;-82
2023/05/19 09:51:54;;;;;;;;;;;;;;;15.86;51.50;102705.04;107547;1259;74765;-81
2023/05/19 09:54:22;;;;;;;;;;;;;;;15.90;51.68;102701.97;107266;1260;66323;-82
2023/05/19 09:57:02;;;;;;;;;;;;;;;15.99;51.78;102707.42;109124;1254;72675;-80
2023/05/19 09:59:30;;;;;;;;;;;;;;;16.10;51.63;102704.41;109030;1254;124618;-80
2023/05/19 10:01:57;;;;;;;;;;;;;;;16.15;51.60;102707.77;108961;1256;59351;-81
2023/05/19 10:04:27;;;;;;;;;;;;;;;16.19;51.72;102711.60;108414;1254;124481;-81
2023/05/19 10:06:58;;;;;;;;;;;;;;;16.15;51.51;102706.71;107415;1254;67447;-81
2023/05/19 10:09:25;;;;;;;;;;;;;;;16.01;51.52;102706.23;107397;1255;71533;-81
2023/05/19 10:11:53;;;;;;;;;;;;;;;15.90;51.56;102709.05;107593;1258;124537;-80
2023/05/19 10:14:23;;;;;;;;;;;;;;;15.86;51.75;102706.96;107922;1260;61384;-81
2023/05/19 10:16:51;;;;;;;;;;;;;;;15.83;51.84;102700.35;107705;1260;124559;-80
2023/05/19 10:19:25;;;;;;;;;;;;;;;15.79;51.77;102701.97;107776;1254;65138;-80
2023/05/19 10:21:52;;;;;;;;;;;;;;;15.64;51.84;102703.00;107525;1254;72679;-80
2023/05/19 10:24:20;;;;;;;;;;;;;;;15.57;51.90;102699.02;107605;1254;61250;-80
2023/05/19 10:26:56;;;;;;;;;;;;;;;15.54;51.80;102697.50;107632;1257;60971;-81
2023/05/19 10:29:30;;;;;;;;;;;;;;;15.40;51.75;102692.23;107616;1258;124696;-82
2023/05/19 10:31:58;;;;;;;;;;;;;;;15.26;51.78;102695.78;107742;1256;67106;-84
2023/05/19 10:34:44;;;;;;;;;;;;;;;15.11;52.05;102690.45;107481;1261;124376;-81
2023/05/19 10:37:30;;;;;;;;;;;;;;;15.06;52.46;102694.88;107733;1258;61254;-80
2023/05/19 10:39:59;;;;;;;;;;;;;;;14.95;52.43;102699.23;107730;1260;124325;-80
2023/05/19 10:43:06;;;;;;;;;;;;;;;14.75;52.47;102699.15;107713;1254;74789;-81
2023/05/19 10:45:35;;;;;;;;;;;;;;;14.55;52.77;102698.70;107192;1262;67306;-82
2023/05/19 10:48:02;;;;;;;;;;;;;;;14.47;52.93;102700.84;108271;1262;124609;-82
2023/05/19 10:50:34;;;;;;;;;;;;;;;14.37;52.92;102695.34;108573;1258;59441;-81
2023/05/19 10:53:01;;;;;;;;;;;;;;;14.30;52.89;102700.68;108430;1254;123965;-85
2023/05/19 10:55:47;;;;;;;;;;;;;;;14.25;52.98;102700.85;107713;1260;73435;-82
2023/05/19 10:58:14;;;;;;;;;;;;;;;14.25;53.02;102701.55;107981;1257;125005;-81
2023/05/19 11:00:41;;;;;;;;;;;;;;;14.17;53.04;102699.29;108175;1261;73100;-79
2023/05/19 11:03:15;;;;;;;;;;;;;;;14.14;53.06;102696.70;108026;1254;61372;-80
2023/05/19 11:05:45;;;;;;;;;;;;;;;14.21;53.26;102698.40;107960;1254;124605;-80
2023/05/19 11:08:12;;;;;;;;;;;;;;;14.27;53.15;102697.20;108131;1254;75686;-81
2023/05/19 11:10:42;;;;;;;;;;;;;;;14.31;52.96;102704.27;107882;1255;124853;-81
2023/05/19 11:13:17;;;;;;;;;;;;;;;14.34;52.88;102706.14;108272;1254;73239;-81
2023/05/19 11:15:45;;;;;;;;;;;;;;;14.36;52.81;102702.88;108091;1260;61238;-80
2023/05/19 11:18:14;;;;;;;;;;;;;;;14.40;52.73;102703.21;107728;1254;124873;-81
2023/05/19 11:20:41;;;;;;;;;;;;;;;14.44;52.78;102701.43;107597;1254;75150;-83
2023/05/19 11:23:09;;;;;;;;;;;;;;;14.48;52.70;102701.61;107771;1254;125250;-81
2023/05/19 11:25:43;;;;;;;;;;;;;;;14.53;52.41;102705.34;107601;1260;72695;-81
2023/05/19 11:28:13;;;;;;;;;;;;;;;14.52;52.47;102708.48;107793;1254;125081;-81
2023/05/19 11:30:41;;;;;;;;;;;;;;;14.53;52.18;102710.09;107791;1254;59418;-81
2023/05/19 11:33:08;;;;;;;;;;;;;;;14.58;52.16;102710.48;107430;1254;72905;-80
2023/05/19 11:35:35;;;;;;;;;;;;;;;14.66;51.97;102711.87;107315;1257;123557;-81
2023/05/19 11:38:03;;;;;;;;;;;;;;;14.74;51.86;102715.23;107681;1257;72582;-81
2023/05/19 11:40:30;;;;;;;;;;;;;;;14.88;51.93;102715.58;107803;1257;124679;-81
2023/05/19 11:42:57;;;;;;;;;;;;;;;15.13;51.75;102713.54;107737;1255;60944;-83
2023/05/19 11:45:25;;;;;;;;;;;;;;;15.39;51.59;102714.64;107423;1255;74581;-83
2023/05/19 11:47:55;;;;;;;;;;;;;;;15.59;51.06;102718.21;107457;1254;124031;-83
2023/05/19 11:50:24;;;;;;;;;;;;;;;15.65;50.55;102723.74;107315;1254;71040;-83
2023/05/19 11:52:51;;;;;;;;;;;;;;;15.63;50.29;102727.36;107677;1254;124245;-83
2023/05/19 11:55:20;;;;;;;;;;;;;;;15.65;50.44;102726.39;108892;1257;59376;-82
2023/05/19 11:58:00;;;;;;;;;;;;;;;15.77;50.40;102731.96;109130;1254;75077;-82
2023/05/19 12:00:36;;;;;;;;;;;;;;;15.98;50.62;102738.02;108218;1258;67069;-82
2023/05/19 12:03:04;;;;;;;;;;;;;;;16.05;50.21;102745.00;108024;1254;73386;-83
2023/05/19 12:05:31;;;;;;;;;;;;;;;15.99;50.12;102749.05;107737;1254;124150;-83
2023/05/19 12:07:59;;;;;;;;;;;;;;;15.94;50.13;102748.16;107987;1254;59965;-82
2023/05/19 12:10:26;;;;;;;;;;;;;;;15.89;50.21;102748.52;107937;1254;124990;-83
2023/05/19 12:12:53;;;;;;;;;;;;;;;15.83;50.31;102748.48;108188;1254;67599;-83
2023/05/19 12:15:21;;;;;;;;;;;;;;;15.82;50.47;102753.55;107608;1260;71379;-84
2023/05/19 12:17:49;;;;;;;;;;;;;;;15.85;50.71;102754.39;107065;1254;282884;-84
2023/05/19 12:20:17;;;;;;;;;;;;;;;15.91;50.78;102756.20;107628;1256;59639;-85
2023/05/19 12:22:44;;;;;;;;;;;;;;;15.95;50.80;102761.29;107101;1260;124482;-84
2023/05/19 12:25:11;;;;;;;;;;;;;;;16.03;50.84;102763.35;107535;1262;66879;-83
2023/05/19 12:27:41;;;;;;;;;;;;;;;16.03;50.91;102765.81;107409;1254;72718;-84
2023/05/19 12:30:08;;;;;;;;;;;;;;;16.11;51.09;102765.39;107728;1254;124379;-82
2023/05/19 12:32:35;;;;;;;;;;;;;;;16.08;51.21;102763.34;107874;1256;60137;-81
2023/05/19 12:35:03;;;;;;;;;;;;;;;16.14;51.40;102761.23;107791;1257;124359;-81
2023/05/19 12:37:32;;;;;;;;;;;;;;;16.19;51.66;102761.76;107779;1257;67171;-80
2023/05/19 12:39:59;;;;;;;;;;;;;;;16.22;51.82;102757.07;107573;1254;124545;-81